sensor_id;sensor_type;location;lat;lon;timestamp;pressure;altitude;pressure_sealevel;temperature;humidity
75157;BME280;63736;50.076;8.198;2022-12-17T00:02:06;100043.94;;;-7.25;100.00
75157;BME280;63736;50.076;8.198;2022-12-17T00:04:50;100044.81;;;-7.29;100.00
75157;BME280;63736;50.076;8.198;2022-12-17T00:07:34;100052.59;;;-7.31;100.00
75157;BME280;63736;50.076;8.198;2022-12-17T00:10:18;100054.31;;;-7.33;100.00
75157;BME280;63736;50.076;8.198;2022-12-17T00:13:01;100049.16;;;-7.34;100.00
75157;BME280;63736;50.076;8.198;2022-12-17T00:15:51;100064.72;;;-7.34;100.00
75157;BME280;63736;50.076;8.198;2022-12-17T00:18:35;100061.28;;;-7.39;100.00
75157;BME280;63736;50.076;8.198;2022-12-17T00:21:20;100059.56;;;-7.43;100.00
75157;BME280;63736;50.076;8.198;2022-12-17T00:24:04;100069.06;;;-7.45;100.00
75157;BME280;63736;50.076;8.198;2022-12-17T00:26:48;100069.94;;;-7.50;100.00
75157;BME280;63736;50.076;8.198;2022-12-17T00:29:32;100074.28;;;-7.50;100.00
75157;BME280;63736;50.076;8.198;2022-12-17T00:32:16;100074.25;;;-7.52;100.00
75157;BME280;63736;50.076;8.198;2022-12-17T00:35:00;100080.31;;;-7.56;100.00
75157;BME280;63736;50.076;8.198;2022-12-17T00:37:45;100082.91;;;-7.57;100.00
75157;BME280;63736;50.076;8.198;2022-12-17T00:40:29;100082.94;;;-7.60;100.00
75157;BME280;63736;50.076;8.198;2022-12-17T00:43:13;100085.50;;;-7.62;100.00
75157;BME280;63736;50.076;8.198;2022-12-17T00:45:57;100081.19;;;-7.63;100.00
75157;BME280;63736;50.076;8.198;2022-12-17T00:48:41;100088.13;;;-7.67;100.00
75157;BME280;63736;50.076;8.198;2022-12-17T00:51:26;100090.72;;;-7.67;100.00
75157;BME280;63736;50.076;8.198;2022-12-17T00:54:10;100101.09;;;-7.70;100.00
75157;BME280;63736;50.076;8.198;2022-12-17T00:56:55;100097.63;;;-7.72;100.00
75157;BME280;63736;50.076;8.198;2022-12-17T00:59:39;100102.81;;;-7.75;100.00
75157;BME280;63736;50.076;8.198;2022-12-17T01:02:24;100096.75;;;-7.75;100.00
75157;BME280;63736;50.076;8.198;2022-12-17T01:05:09;100095.91;;;-7.77;100.00
75157;BME280;63736;50.076;8.198;2022-12-17T01:07:54;100091.59;;;-7.80;100.00
75157;BME280;63736;50.076;8.198;2022-12-17T01:10:38;100091.59;;;-7.80;100.00
75157;BME280;63736;50.076;8.198;2022-12-17T01:13:22;100103.69;;;-7.77;100.00
75157;BME280;63736;50.076;8.198;2022-12-17T01:16:10;100104.53;;;-7.77;100.00
75157;BME280;63736;50.076;8.198;2022-12-17T01:18:55;100112.34;;;-7.78;100.00
75157;BME280;63736;50.076;8.198;2022-12-17T01:21:39;100114.03;;;-7.82;100.00
75157;BME280;63736;50.076;8.198;2022-12-17T01:24:23;100118.34;;;-7.84;100.00
75157;BME280;63736;50.076;8.198;2022-12-17T01:27:07;100115.78;;;-7.86;100.00
75157;BME280;63736;50.076;8.198;2022-12-17T01:29:51;100123.53;;;-7.86;100.00
75157;BME280;63736;50.076;8.198;2022-12-17T01:32:35;100125.28;;;-7.86;100.00
75157;BME280;63736;50.076;8.198;2022-12-17T01:35:19;100123.56;;;-7.87;100.00
75157;BME280;63736;50.076;8.198;2022-12-17T01:38:12;100122.69;;;-7.85;100.00
75157;BME280;63736;50.076;8.198;2022-12-17T01:40:58;100131.34;;;-7.83;100.00
75157;BME280;63736;50.076;8.198;2022-12-17T01:43:42;100130.47;;;-7.83;100.00
75157;BME280;63736;50.076;8.198;2022-12-17T01:46:28;100128.75;;;-7.83;100.00
75157;BME280;63736;50.076;8.198;2022-12-17T01:49:16;100139.97;;;-7.87;100.00
75157;BME280;63736;50.076;8.198;2022-12-17T01:52:01;100140.84;;;-7.94;100.00
75157;BME280;63736;50.076;8.198;2022-12-17T01:54:45;100141.69;;;-7.98;100.00
75157;BME280;63736;50.076;8.198;2022-12-17T02:01:09;100147.72;;;-8.05;100.00
75157;BME280;63736;50.076;8.198;2022-12-17T02:04:01;100151.19;;;-8.09;100.00
75157;BME280;63736;50.076;8.198;2022-12-17T02:07:13;100151.19;;;-8.11;100.00
75157;BME280;63736;50.076;8.198;2022-12-17T02:10:23;100154.63;;;-8.12;100.00
75157;BME280;63736;50.076;8.198;2022-12-17T02:13:20;100152.03;;;-8.10;100.00
75157;BME280;63736;50.076;8.198;2022-12-17T02:16:14;100150.28;;;-8.11;100.00
75157;BME280;63736;50.076;8.198;2022-12-17T02:19:42;100153.78;;;-8.09;100.00
75157;BME280;63736;50.076;8.198;2022-12-17T02:25:44;100150.28;;;-8.11;100.00
75157;BME280;63736;50.076;8.198;2022-12-17T02:29:05;100149.44;;;-8.14;100.00
75157;BME280;63736;50.076;8.198;2022-12-17T02:31:51;100156.34;;;-8.17;100.00
75157;BME280;63736;50.076;8.198;2022-12-17T02:34:50;100155.50;;;-8.18;100.00
75157;BME280;63736;50.076;8.198;2022-12-17T02:37:35;100168.41;;;-8.19;100.00
75157;BME280;63736;50.076;8.198;2022-12-17T02:40:28;100163.22;;;-8.19;100.00
75157;BME280;63736;50.076;8.198;2022-12-17T02:43:12;100161.50;;;-8.23;100.00
75157;BME280;63736;50.076;8.198;2022-12-17T02:45:56;100159.75;;;-8.26;100.00
75157;BME280;63736;50.076;8.198;2022-12-17T02:48:41;100168.41;;;-8.28;100.00
75157;BME280;63736;50.076;8.198;2022-12-17T02:51:31;100166.66;;;-8.33;100.00
75157;BME280;63736;50.076;8.198;2022-12-17T02:54:15;100174.44;;;-8.37;100.00
75157;BME280;63736;50.076;8.198;2022-12-17T02:57:08;100180.44;;;-8.41;100.00
75157;BME280;63736;50.076;8.198;2022-12-17T02:59:55;100179.59;;;-8.43;100.00
75157;BME280;63736;50.076;8.198;2022-12-17T03:02:40;100183.06;;;-8.46;100.00
75157;BME280;63736;50.076;8.198;2022-12-17T03:05:29;100183.06;;;-8.46;100.00
75157;BME280;63736;50.076;8.198;2022-12-17T03:08:16;100184.75;;;-8.51;100.00
75157;BME280;63736;50.076;8.198;2022-12-17T03:11:00;100193.38;;;-8.52;100.00
75157;BME280;63736;50.076;8.198;2022-12-17T03:13:44;100195.97;;;-8.52;100.00
75157;BME280;63736;50.076;8.198;2022-12-17T03:16:28;100200.31;;;-8.53;100.00
75157;BME280;63736;50.076;8.198;2022-12-17T03:19:12;100196.81;;;-8.55;100.00
75157;BME280;63736;50.076;8.198;2022-12-17T03:21:58;100200.31;;;-8.54;100.00
75157;BME280;63736;50.076;8.198;2022-12-17T03:24:42;100195.09;;;-8.57;100.00
75157;BME280;63736;50.076;8.198;2022-12-17T03:27:26;100202.84;;;-8.59;100.00
75157;BME280;63736;50.076;8.198;2022-12-17T03:30:25;100217.56;;;-8.56;100.00
75157;BME280;63736;50.076;8.198;2022-12-17T03:33:09;100220.13;;;-8.59;100.00
75157;BME280;63736;50.076;8.198;2022-12-17T03:35:53;100214.91;;;-8.61;100.00
75157;BME280;63736;50.076;8.198;2022-12-17T03:38:38;100212.34;;;-8.61;100.00
75157;BME280;63736;50.076;8.198;2022-12-17T03:41:24;100211.47;;;-8.60;100.00
75157;BME280;63736;50.076;8.198;2022-12-17T03:44:09;100212.38;;;-8.59;100.00
75157;BME280;63736;50.076;8.198;2022-12-17T03:46:53;100219.25;;;-8.61;100.00
75157;BME280;63736;50.076;8.198;2022-12-17T03:49:36;100224.41;;;-8.65;100.00
75157;BME280;63736;50.076;8.198;2022-12-17T03:52:20;100215.78;;;-8.67;100.00
75157;BME280;63736;50.076;8.198;2022-12-17T03:55:04;100215.75;;;-8.68;100.00
75157;BME280;63736;50.076;8.198;2022-12-17T03:57:48;100213.19;;;-8.68;100.00
75157;BME280;63736;50.076;8.198;2022-12-17T04:00:32;100209.69;;;-8.69;100.00
75157;BME280;63736;50.076;8.198;2022-12-17T04:03:16;100215.75;;;-8.68;100.00
75157;BME280;63736;50.076;8.198;2022-12-17T04:05:59;100217.47;;;-8.70;100.00
75157;BME280;63736;50.076;8.198;2022-12-17T04:08:43;100220.06;;;-8.70;100.00
75157;BME280;63736;50.076;8.198;2022-12-17T04:11:27;100220.06;;;-8.70;100.00
75157;BME280;63736;50.076;8.198;2022-12-17T04:14:11;100220.06;;;-8.72;100.00
75157;BME280;63736;50.076;8.198;2022-12-17T04:16:55;100233.84;;;-8.73;100.00
75157;BME280;63736;50.076;8.198;2022-12-17T04:19:39;100232.13;;;-8.74;100.00
75157;BME280;63736;50.076;8.198;2022-12-17T04:22:23;100231.25;;;-8.74;100.00
75157;BME280;63736;50.076;8.198;2022-12-17T04:25:07;100244.22;;;-8.74;100.00
75157;BME280;63736;50.076;8.198;2022-12-17T04:27:51;100235.53;;;-8.76;100.00
75157;BME280;63736;50.076;8.198;2022-12-17T04:30:35;100240.72;;;-8.76;100.00
75157;BME280;63736;50.076;8.198;2022-12-17T04:33:18;100243.31;;;-8.80;100.00
75157;BME280;63736;50.076;8.198;2022-12-17T04:36:10;100248.50;;;-8.80;100.00
75157;BME280;63736;50.076;8.198;2022-12-17T04:38:54;100251.94;;;-8.81;100.00
75157;BME280;63736;50.076;8.198;2022-12-17T04:41:38;100253.66;;;-8.81;100.00
75157;BME280;63736;50.076;8.198;2022-12-17T04:44:21;100257.09;;;-8.81;100.00
75157;BME280;63736;50.076;8.198;2022-12-17T04:47:05;100249.34;;;-8.81;100.00
75157;BME280;63736;50.076;8.198;2022-12-17T04:49:49;100260.53;;;-8.83;100.00
75157;BME280;63736;50.076;8.198;2022-12-17T04:52:33;100264.00;;;-8.84;100.00
75157;BME280;63736;50.076;8.198;2022-12-17T04:55:16;100264.00;;;-8.84;100.00
75157;BME280;63736;50.076;8.198;2022-12-17T04:58:04;100256.25;;;-8.83;100.00
75157;BME280;63736;50.076;8.198;2022-12-17T05:00:52;100260.53;;;-8.83;100.00
75157;BME280;63736;50.076;8.198;2022-12-17T05:03:36;100270.88;;;-8.85;100.00
75157;BME280;63736;50.076;8.198;2022-12-17T05:06:20;100273.47;;;-8.86;100.00
75157;BME280;63736;50.076;8.198;2022-12-17T05:09:04;100275.16;;;-8.88;100.00
75157;BME280;63736;50.076;8.198;2022-12-17T05:11:48;100273.44;;;-8.91;100.00
75157;BME280;63736;50.076;8.198;2022-12-17T05:14:31;100283.78;;;-8.91;100.00
75157;BME280;63736;50.076;8.198;2022-12-17T05:17:15;100288.09;;;-8.93;100.00
75157;BME280;63736;50.076;8.198;2022-12-17T05:19:59;100287.22;;;-8.95;100.00
75157;BME280;63736;50.076;8.198;2022-12-17T05:22:47;100288.06;;;-8.98;100.00
75157;BME280;63736;50.076;8.198;2022-12-17T05:25:31;100293.22;;;-8.99;100.00
75157;BME280;63736;50.076;8.198;2022-12-17T05:28:15;100302.72;;;-9.00;100.00
75157;BME280;63736;50.076;8.198;2022-12-17T05:30:59;100292.38;;;-9.00;100.00
75157;BME280;63736;50.076;8.198;2022-12-17T05:33:43;100301.84;;;-9.00;100.00
75157;BME280;63736;50.076;8.198;2022-12-17T05:36:27;100300.13;;;-9.00;100.00
75157;BME280;63736;50.076;8.198;2022-12-17T05:39:11;100304.41;;;-9.00;100.00
75157;BME280;63736;50.076;8.198;2022-12-17T05:41:55;100307.00;;;-9.00;100.00
75157;BME280;63736;50.076;8.198;2022-12-17T05:44:38;100305.28;;;-9.01;100.00
75157;BME280;63736;50.076;8.198;2022-12-17T05:47:22;100306.16;;;-9.01;100.00
75157;BME280;63736;50.076;8.198;2022-12-17T05:50:06;100308.75;;;-9.01;100.00
75157;BME280;63736;50.076;8.198;2022-12-17T05:52:50;100313.94;;;-9.01;100.00
75157;BME280;63736;50.076;8.198;2022-12-17T05:55:34;100309.59;;;-9.00;100.00
75157;BME280;63736;50.076;8.198;2022-12-17T05:58:18;100313.94;;;-9.01;100.00
75157;BME280;63736;50.076;8.198;2022-12-17T06:01:03;100319.97;;;-9.00;100.00
75157;BME280;63736;50.076;8.198;2022-12-17T06:03:47;100323.38;;;-9.03;100.00
75157;BME280;63736;50.076;8.198;2022-12-17T06:06:32;100328.56;;;-9.03;100.00
75157;BME280;63736;50.076;8.198;2022-12-17T06:09:16;100327.69;;;-9.03;100.00
75157;BME280;63736;50.076;8.198;2022-12-17T06:12:00;100343.22;;;-9.05;100.00
75157;BME280;63736;50.076;8.198;2022-12-17T06:14:43;100345.75;;;-9.08;100.00
75157;BME280;63736;50.076;8.198;2022-12-17T06:17:27;100352.69;;;-9.07;100.00
75157;BME280;63736;50.076;8.198;2022-12-17T06:20:11;100347.50;;;-9.08;100.00
75157;BME280;63736;50.076;8.198;2022-12-17T06:23:02;100350.94;;;-9.06;100.00
75157;BME280;63736;50.076;8.198;2022-12-17T06:25:47;100360.44;;;-9.10;100.00
75157;BME280;63736;50.076;8.198;2022-12-17T06:28:30;100362.13;;;-9.10;100.00
75157;BME280;63736;50.076;8.198;2022-12-17T06:31:15;100361.28;;;-9.11;100.00
75157;BME280;63736;50.076;8.198;2022-12-17T06:33:58;100359.53;;;-9.14;100.00
75157;BME280;63736;50.076;8.198;2022-12-17T06:36:43;100367.28;;;-9.14;100.00
75157;BME280;63736;50.076;8.198;2022-12-17T06:39:28;100370.72;;;-9.16;100.00
75157;BME280;63736;50.076;8.198;2022-12-17T06:42:12;100374.16;;;-9.17;100.00
75157;BME280;63736;50.076;8.198;2022-12-17T06:44:56;100375.00;;;-9.18;100.00
75157;BME280;63736;50.076;8.198;2022-12-17T06:47:40;100377.59;;;-9.18;100.00
75157;BME280;63736;50.076;8.198;2022-12-17T06:50:23;100374.97;;;-9.20;100.00
75157;BME280;63736;50.076;8.198;2022-12-17T06:53:07;100379.31;;;-9.20;100.00
75157;BME280;63736;50.076;8.198;2022-12-17T06:55:51;100393.09;;;-9.21;100.00
75157;BME280;63736;50.076;8.198;2022-12-17T06:58:36;100389.66;;;-9.22;100.00
75157;BME280;63736;50.076;8.198;2022-12-17T07:01:20;100398.25;;;-9.23;100.00
75157;BME280;63736;50.076;8.198;2022-12-17T07:04:04;100406.00;;;-9.23;100.00
75157;BME280;63736;50.076;8.198;2022-12-17T07:06:48;100413.78;;;-9.21;100.00
75157;BME280;63736;50.076;8.198;2022-12-17T07:09:32;100415.47;;;-9.23;100.00
75157;BME280;63736;50.076;8.198;2022-12-17T07:12:16;100423.25;;;-9.23;100.00
75157;BME280;63736;50.076;8.198;2022-12-17T07:15:00;100429.31;;;-9.23;100.00
75157;BME280;63736;50.076;8.198;2022-12-17T07:18:01;100431.06;;;-9.19;100.00
75157;BME280;63736;50.076;8.198;2022-12-17T07:20:46;100441.41;;;-9.19;100.00
75157;BME280;63736;50.076;8.198;2022-12-17T07:23:30;100442.31;;;-9.17;100.00
75157;BME280;63736;50.076;8.198;2022-12-17T07:26:14;100453.53;;;-9.15;100.00
75157;BME280;63736;50.076;8.198;2022-12-17T07:28:58;100457.00;;;-9.14;100.00
75157;BME280;63736;50.076;8.198;2022-12-17T07:31:42;100448.41;;;-9.11;100.00
75157;BME280;63736;50.076;8.198;2022-12-17T07:34:25;100449.28;;;-9.09;100.00
75157;BME280;63736;50.076;8.198;2022-12-17T07:37:09;100449.31;;;-9.06;100.00
75157;BME280;63736;50.076;8.198;2022-12-17T07:39:53;100451.13;;;-9.01;100.00
75157;BME280;63736;50.076;8.198;2022-12-17T07:42:40;100459.81;;;-8.91;100.00
75157;BME280;63736;50.076;8.198;2022-12-17T07:45:24;100459.97;;;-8.80;100.00
75157;BME280;63736;50.076;8.198;2022-12-17T07:48:10;100466.97;;;-8.67;100.00
75157;BME280;63736;50.076;8.198;2022-12-17T07:50:54;100476.91;;;-8.16;100.00
75157;BME280;63736;50.076;8.198;2022-12-17T07:53:38;100463.75;;;-6.67;100.00
75157;BME280;63736;50.076;8.198;2022-12-17T07:56:22;100451.34;;;-5.08;100.00
75157;BME280;63736;50.076;8.198;2022-12-17T07:59:06;100453.84;;;-3.81;100.00
75157;BME280;63736;50.076;8.198;2022-12-17T08:01:50;100454.41;;;-2.79;100.00
75157;BME280;63736;50.076;8.198;2022-12-17T08:04:34;100460.44;;;-2.18;100.00
75157;BME280;63736;50.076;8.198;2022-12-17T08:07:18;100459.97;;;-1.90;99.52
75157;BME280;63736;50.076;8.198;2022-12-17T08:10:02;100452.59;;;-2.18;96.86
75157;BME280;63736;50.076;8.198;2022-12-17T08:13:12;100457.44;;;-2.48;98.90
75157;BME280;63736;50.076;8.198;2022-12-17T08:15:56;100468.75;;;-2.47;100.00
75157;BME280;63736;50.076;8.198;2022-12-17T08:18:40;100464.41;;;-2.50;100.00
75157;BME280;63736;50.076;8.198;2022-12-17T08:21:24;100469.97;;;-2.70;100.00
75157;BME280;63736;50.076;8.198;2022-12-17T08:24:08;100473.25;;;-2.59;100.00
75157;BME280;63736;50.076;8.198;2022-12-17T08:26:52;100468.75;;;-1.94;100.00
75157;BME280;63736;50.076;8.198;2022-12-17T08:29:35;100470.88;;;-1.65;96.88
75157;BME280;63736;50.076;8.198;2022-12-17T08:32:19;100483.72;;;-2.01;93.44
75157;BME280;63736;50.076;8.198;2022-12-17T08:35:04;100489.78;;;-2.55;94.85
75157;BME280;63736;50.076;8.198;2022-12-17T08:37:48;100494.75;;;-3.02;98.61
75157;BME280;63736;50.076;8.198;2022-12-17T08:40:32;100510.00;;;-3.40;100.00
75157;BME280;63736;50.076;8.198;2022-12-17T08:43:16;100507.72;;;-3.72;100.00
75157;BME280;63736;50.076;8.198;2022-12-17T08:46:00;100520.09;;;-3.91;100.00
75157;BME280;63736;50.076;8.198;2022-12-17T08:48:44;100530.63;;;-4.05;100.00
75157;BME280;63736;50.076;8.198;2022-12-17T08:51:50;100529.81;;;-4.15;100.00
75157;BME280;63736;50.076;8.198;2022-12-17T08:54:34;100532.47;;;-4.18;100.00
75157;BME280;63736;50.076;8.198;2022-12-17T08:57:19;100536.81;;;-4.19;100.00
75157;BME280;63736;50.076;8.198;2022-12-17T09:00:16;100534.16;;;-4.14;100.00
75157;BME280;63736;50.076;8.198;2022-12-17T09:03:01;100543.63;;;-4.01;100.00
75157;BME280;63736;50.076;8.198;2022-12-17T09:05:45;100536.59;;;-3.89;100.00
75157;BME280;63736;50.076;8.198;2022-12-17T09:08:30;100539.06;;;-3.74;100.00
75157;BME280;63736;50.076;8.198;2022-12-17T09:11:14;100534.59;;;-3.59;100.00
75157;BME280;63736;50.076;8.198;2022-12-17T09:13:58;100539.72;;;-3.50;100.00
75157;BME280;63736;50.076;8.198;2022-12-17T09:16:42;100544.88;;;-3.44;100.00
75157;BME280;63736;50.076;8.198;2022-12-17T09:19:26;100536.19;;;-3.44;100.00
75157;BME280;63736;50.076;8.198;2022-12-17T09:22:10;100542.25;;;-3.42;100.00
75157;BME280;63736;50.076;8.198;2022-12-17T09:24:55;100551.78;;;-3.38;100.00
75157;BME280;63736;50.076;8.198;2022-12-17T09:27:39;100551.84;;;-3.43;100.00
75157;BME280;63736;50.076;8.198;2022-12-17T09:30:36;100550.06;;;-3.39;100.00
75157;BME280;63736;50.076;8.198;2022-12-17T09:33:20;100548.28;;;-3.36;100.00
75157;BME280;63736;50.076;8.198;2022-12-17T09:36:05;100543.06;;;-3.34;100.00
75157;BME280;63736;50.076;8.198;2022-12-17T09:38:49;100552.63;;;-3.35;100.00
75157;BME280;63736;50.076;8.198;2022-12-17T09:44:41;100552.38;;;-3.11;100.00
75157;BME280;63736;50.076;8.198;2022-12-17T09:47:33;100546.19;;;-3.03;100.00
75157;BME280;63736;50.076;8.198;2022-12-17T09:50:20;100553.06;;;-2.94;100.00
75157;BME280;63736;50.076;8.198;2022-12-17T09:53:20;100552.91;;;-2.82;100.00
75157;BME280;63736;50.076;8.198;2022-12-17T09:56:06;100557.22;;;-2.77;100.00
75157;BME280;63736;50.076;8.198;2022-12-17T09:58:52;100562.34;;;-2.70;100.00
75157;BME280;63736;50.076;8.198;2022-12-17T10:01:38;100560.56;;;-2.66;100.00
75157;BME280;63736;50.076;8.198;2022-12-17T10:04:36;100559.69;;;-2.68;100.00
75157;BME280;63736;50.076;8.198;2022-12-17T10:07:34;100553.59;;;-2.67;100.00
75157;BME280;63736;50.076;8.198;2022-12-17T10:10:26;100567.53;;;-2.68;100.00
75157;BME280;63736;50.076;8.198;2022-12-17T10:13:15;100568.38;;;-2.64;100.00
75157;BME280;63736;50.076;8.198;2022-12-17T10:16:02;100570.03;;;-2.56;100.00
75157;BME280;63736;50.076;8.198;2022-12-17T10:18:51;100575.25;;;-2.56;100.00
75157;BME280;63736;50.076;8.198;2022-12-17T10:21:37;100582.34;;;-2.64;100.00
75157;BME280;63736;50.076;8.198;2022-12-17T10:24:23;100568.56;;;-2.77;100.00
75157;BME280;63736;50.076;8.198;2022-12-17T10:27:10;100574.66;;;-2.78;100.00
75157;BME280;63736;50.076;8.198;2022-12-17T10:29:54;100576.41;;;-2.80;100.00
75157;BME280;63736;50.076;8.198;2022-12-17T10:32:38;100578.09;;;-2.76;100.00
75157;BME280;63736;50.076;8.198;2022-12-17T10:35:36;100583.34;;;-2.76;100.00
75157;BME280;63736;50.076;8.198;2022-12-17T10:38:25;100581.56;;;-2.72;100.00
75157;BME280;63736;50.076;8.198;2022-12-17T10:41:21;100584.03;;;-2.60;100.00
75157;BME280;63736;50.076;8.198;2022-12-17T10:44:28;100594.41;;;-2.52;100.00
75157;BME280;63736;50.076;8.198;2022-12-17T10:47:17;100582.97;;;-2.46;100.00
75157;BME280;63736;50.076;8.198;2022-12-17T10:50:22;100589.94;;;-2.45;100.00
75157;BME280;63736;50.076;8.198;2022-12-17T10:53:20;100588.31;;;-2.54;100.00
75157;BME280;63736;50.076;8.198;2022-12-17T10:56:05;100591.81;;;-2.57;100.00
75157;BME280;63736;50.076;8.198;2022-12-17T10:58:52;100585.53;;;-2.42;100.00
75157;BME280;63736;50.076;8.198;2022-12-17T11:01:45;100595.81;;;-2.29;100.00
75157;BME280;63736;50.076;8.198;2022-12-17T11:04:35;100593.06;;;-2.20;100.00
75157;BME280;63736;50.076;8.198;2022-12-17T11:07:28;100580.72;;;-2.10;100.00
75157;BME280;63736;50.076;8.198;2022-12-17T11:10:29;100586.53;;;-1.91;100.00
75157;BME280;63736;50.076;8.198;2022-12-17T11:13:35;100595.72;;;-1.62;100.00
75157;BME280;63736;50.076;8.198;2022-12-17T11:19:55;100600.34;;;-1.27;100.00
75157;BME280;63736;50.076;8.198;2022-12-17T11:22:50;100600.44;;;-1.33;100.00
75157;BME280;63736;50.076;8.198;2022-12-17T11:25:51;100592.78;;;-1.44;100.00
75157;BME280;63736;50.076;8.198;2022-12-17T11:28:35;100583.41;;;-1.59;100.00
75157;BME280;63736;50.076;8.198;2022-12-17T11:40:39;100593.88;;;-1.57;100.00
75157;BME280;63736;50.076;8.198;2022-12-17T11:44:04;100590.22;;;-1.47;100.00
75157;BME280;63736;50.076;8.198;2022-12-17T11:55:53;100591.50;;;-1.74;98.54
75157;BME280;63736;50.076;8.198;2022-12-17T11:58:40;100595.31;;;-1.92;98.89
75157;BME280;63736;50.076;8.198;2022-12-17T12:07:46;100599.75;;;-1.97;99.13
75157;BME280;63736;50.076;8.198;2022-12-17T12:11:00;100599.75;;;-1.97;99.38
75157;BME280;63736;50.076;8.198;2022-12-17T12:20:01;100598.81;;;-1.93;99.29
75157;BME280;63736;50.076;8.198;2022-12-17T12:23:24;100601.50;;;-2.00;100.00
75157;BME280;63736;50.076;8.198;2022-12-17T12:26:18;100600.66;;;-2.02;100.00
75157;BME280;63736;50.076;8.198;2022-12-17T12:29:34;100604.34;;;-2.15;100.00
75157;BME280;63736;50.076;8.198;2022-12-17T12:32:34;100605.34;;;-2.24;100.00
75157;BME280;63736;50.076;8.198;2022-12-17T12:35:25;100605.34;;;-2.24;100.00
75157;BME280;63736;50.076;8.198;2022-12-17T12:41:55;100600.88;;;-2.16;100.00
75157;BME280;63736;50.076;8.198;2022-12-17T12:47:58;100601.69;;;-2.10;100.00
75157;BME280;63736;50.076;8.198;2022-12-17T12:50:58;100604.31;;;-2.13;100.00
75157;BME280;63736;50.076;8.198;2022-12-17T12:53:43;100611.38;;;-2.19;100.00
75157;BME280;63736;50.076;8.198;2022-12-17T12:56:32;100602.63;;;-2.18;100.00
75157;BME280;63736;50.076;8.198;2022-12-17T12:59:36;100606.16;;;-2.20;100.00
75157;BME280;63736;50.076;8.198;2022-12-17T13:02:28;100607.03;;;-2.18;100.00
75157;BME280;63736;50.076;8.198;2022-12-17T13:05:39;100589.47;;;-2.11;100.00
75157;BME280;63736;50.076;8.198;2022-12-17T13:08:19;100585.13;;;-2.12;100.00
75157;BME280;63736;50.076;8.198;2022-12-17T13:10:49;100583.34;;;-2.10;100.00
75157;BME280;63736;50.076;8.198;2022-12-17T13:13:26;100580.81;;;-2.17;100.00
75157;BME280;63736;50.076;8.198;2022-12-17T13:15:58;100584.41;;;-2.24;100.00
75157;BME280;63736;50.076;8.198;2022-12-17T13:21:22;100581.94;;;-2.35;100.00
75157;BME280;63736;50.076;8.198;2022-12-17T13:23:47;100580.22;;;-2.37;100.00
75157;BME280;63736;50.076;8.198;2022-12-17T13:26:21;100586.38;;;-2.40;100.00
75157;BME280;63736;50.076;8.198;2022-12-17T13:29:00;100577.69;;;-2.42;100.00
75157;BME280;63736;50.076;8.198;2022-12-17T13:31:28;100583.78;;;-2.41;100.00
75157;BME280;63736;50.076;8.198;2022-12-17T13:34:01;100579.44;;;-2.42;100.00
75157;BME280;63736;50.076;8.198;2022-12-17T13:36:58;100577.72;;;-2.45;100.00
75157;BME280;63736;50.076;8.198;2022-12-17T13:39:32;100571.66;;;-2.47;100.00
75157;BME280;63736;50.076;8.198;2022-12-17T13:41:58;100569.97;;;-2.53;100.00
75157;BME280;63736;50.076;8.198;2022-12-17T13:44:27;100578.72;;;-2.55;100.00
75157;BME280;63736;50.076;8.198;2022-12-17T13:46:55;100582.28;;;-2.61;100.00
75157;BME280;63736;50.076;8.198;2022-12-17T13:49:22;100573.63;;;-2.64;100.00
75157;BME280;63736;50.076;8.198;2022-12-17T13:52:00;100576.19;;;-2.61;100.00
75157;BME280;63736;50.076;8.198;2022-12-17T13:54:26;100581.50;;;-2.68;100.00
75157;BME280;63736;50.076;8.198;2022-12-17T13:56:51;100583.25;;;-2.70;100.00
75157;BME280;63736;50.076;8.198;2022-12-17T13:59:21;100586.81;;;-2.74;100.00
75157;BME280;63736;50.076;8.198;2022-12-17T14:01:49;100590.38;;;-2.79;100.00
75157;BME280;63736;50.076;8.198;2022-12-17T14:04:28;100597.44;;;-2.89;100.00
75157;BME280;63736;50.076;8.198;2022-12-17T14:06:58;100594.97;;;-3.00;100.00
75157;BME280;63736;50.076;8.198;2022-12-17T14:09:42;100596.72;;;-3.04;100.00
75157;BME280;63736;50.076;8.198;2022-12-17T14:12:12;100597.72;;;-3.16;100.00
75157;BME280;63736;50.076;8.198;2022-12-17T14:14:52;100601.25;;;-3.21;100.00
75157;BME280;63736;50.076;8.198;2022-12-17T14:17:49;100601.28;;;-3.24;100.00
75157;BME280;63736;50.076;8.198;2022-12-17T14:22:49;100598.75;;;-3.29;100.00
75157;BME280;63736;50.076;8.198;2022-12-17T14:25:18;100609.19;;;-3.29;100.00
75157;BME280;63736;50.076;8.198;2022-12-17T14:28:05;100610.91;;;-3.26;100.00
75157;BME280;63736;50.076;8.198;2022-12-17T14:30:37;100611.75;;;-3.24;100.00
75157;BME280;63736;50.076;8.198;2022-12-17T14:33:04;100609.13;;;-3.24;100.00
75157;BME280;63736;50.076;8.198;2022-12-17T14:35:33;100603.06;;;-3.25;100.00
75157;BME280;63736;50.076;8.198;2022-12-17T14:37:59;100606.56;;;-3.30;100.00
75157;BME280;63736;50.076;8.198;2022-12-17T14:40:26;100609.22;;;-3.34;100.00
75157;BME280;63736;50.076;8.198;2022-12-17T14:42:57;100619.66;;;-3.34;100.00
75157;BME280;63736;50.076;8.198;2022-12-17T14:45:24;100617.97;;;-3.38;100.00
75157;BME280;63736;50.076;8.198;2022-12-17T14:47:59;100625.84;;;-3.44;100.00
75157;BME280;63736;50.076;8.198;2022-12-17T14:50:35;100634.59;;;-3.51;100.00
75157;BME280;63736;50.076;8.198;2022-12-17T14:53:23;100627.66;;;-3.51;100.00
75157;BME280;63736;50.076;8.198;2022-12-17T14:59:31;100626.94;;;-3.67;100.00
75157;BME280;63736;50.076;8.198;2022-12-17T15:02:02;100630.41;;;-3.71;100.00
75157;BME280;63736;50.076;8.198;2022-12-17T15:04:29;100634.78;;;-3.73;100.00
75157;BME280;63736;50.076;8.198;2022-12-17T15:06:56;100636.53;;;-3.75;100.00
75157;BME280;63736;50.076;8.198;2022-12-17T15:09:21;100631.34;;;-3.78;100.00
75157;BME280;63736;50.076;8.198;2022-12-17T15:11:47;100630.47;;;-3.78;100.00
75157;BME280;63736;50.076;8.198;2022-12-17T15:14:16;100633.97;;;-3.79;100.00